Time;durP1;ratioP1;P1;durP2;ratioP2;P2;SDS_P1;SDS_P2;PMS_P1;PMS_P2;Temp;Humidity;BMP_temperature;BMP_pressure;BME280_temperature;BME280_humidity;BME280_pressure;Samples;Min_cycle;Max_cycle;Signal;HPM_P1;HPM_P2
2021/12/22 00:02:14;;;;;;;36.63;16.90;;;1.40;92.10;;;;;;5056334;28;20048;-68
2021/12/22 00:04:45;;;;;;;36.72;15.93;;;1.40;92.20;;;;;;5057545;28;20385;-68
2021/12/22 00:07:12;;;;;;;31.55;15.52;;;1.40;92.20;;;;;;5056345;28;20033;-68
2021/12/22 00:09:37;;;;;;;32.65;15.98;;;1.30;92.20;;;;;;5059473;28;20031;-68
2021/12/22 00:12:04;;;;;;;34.25;15.40;;;1.30;92.20;;;;;;5055451;28;20020;-68
2021/12/22 00:14:29;;;;;;;31.27;17.25;;;1.30;92.10;;;;;;5058655;28;20028;-68
2021/12/22 00:16:55;;;;;;;27.35;14.13;;;1.30;92.10;;;;;;5058857;28;20020;-68
2021/12/22 00:19:21;;;;;;;31.48;16.88;;;1.30;92.00;;;;;;5041233;28;20038;-68
2021/12/22 00:21:47;;;;;;;28.40;14.55;;;1.30;92.00;;;;;;5044392;28;20047;-68
2021/12/22 00:24:13;;;;;;;28.88;15.18;;;1.30;92.00;;;;;;5041069;28;20070;-68
2021/12/22 00:26:39;;;;;;;28.55;13.30;;;1.30;92.00;;;;;;5047445;28;20025;-68
2021/12/22 00:29:06;;;;;;;33.33;13.77;;;1.20;91.90;;;;;;5059632;28;20125;-68
2021/12/22 00:31:40;;;;;;;28.85;14.18;;;1.30;91.90;;;;;;5056479;28;20032;-68
2021/12/22 00:34:14;;;;;;;29.52;14.90;;;1.20;91.90;;;;;;5054359;28;20033;-68
2021/12/22 00:36:40;;;;;;;35.03;16.13;;;1.20;91.90;;;;;;5054547;28;20090;-68
2021/12/22 00:39:06;;;;;;;24.55;13.40;;;1.20;91.90;;;;;;5054091;28;20024;-68
2021/12/22 00:41:32;;;;;;;30.92;16.20;;;1.20;91.90;;;;;;5057434;28;20115;-68
2021/12/22 00:43:57;;;;;;;34.67;16.73;;;1.10;91.90;;;;;;5055469;28;20081;-68
2021/12/22 00:46:23;;;;;;;33.83;17.80;;;1.10;91.90;;;;;;5058848;28;20485;-68
2021/12/22 00:48:49;;;;;;;28.73;13.00;;;1.10;91.90;;;;;;5051365;28;20033;-68
2021/12/22 00:51:15;;;;;;;23.10;11.63;;;1.10;91.90;;;;;;5057071;28;20044;-68
2021/12/22 00:53:41;;;;;;;30.95;14.02;;;1.10;91.90;;;;;;5054005;28;20032;-68
2021/12/22 00:56:07;;;;;;;31.15;15.60;;;1.10;91.80;;;;;;5056340;28;20071;-68
2021/12/22 00:58:34;;;;;;;30.65;15.57;;;1.00;91.80;;;;;;5054490;28;20024;-68
2021/12/22 01:01:00;;;;;;;27.30;15.85;;;1.00;91.80;;;;;;5060162;28;20024;-68
2021/12/22 01:03:27;;;;;;;24.95;12.40;;;1.00;91.80;;;;;;5058214;28;20373;-68
2021/12/22 01:05:53;;;;;;;26.55;13.55;;;1.00;91.80;;;;;;5053754;28;20021;-68
2021/12/22 01:08:19;;;;;;;25.95;14.27;;;1.00;91.80;;;;;;5052955;28;20025;-68
2021/12/22 01:10:46;;;;;;;27.98;15.25;;;0.90;91.80;;;;;;5052062;28;20064;-68
2021/12/22 01:13:12;;;;;;;23.98;12.52;;;0.90;91.90;;;;;;5057834;28;20029;-68
2021/12/22 01:15:39;;;;;;;25.83;13.95;;;0.90;91.90;;;;;;5056564;28;20028;-68
2021/12/22 01:18:12;;;;;;;29.17;15.05;;;0.90;91.90;;;;;;5055183;28;20479;-68
2021/12/22 01:23:22;;;;;;;26.60;14.32;;;0.90;92.00;;;;;;5050517;28;20045;-68
2021/12/22 01:25:49;;;;;;;27.63;14.68;;;0.80;92.00;;;;;;5058514;28;20029;-68
2021/12/22 01:28:18;;;;;;;29.83;13.63;;;0.80;92.00;;;;;;5051195;28;20032;-68
2021/12/22 01:30:47;;;;;;;28.55;15.20;;;0.80;92.00;;;;;;5061735;28;20029;-68
2021/12/22 01:33:15;;;;;;;28.73;15.75;;;0.70;92.00;;;;;;5055368;28;20752;-68
2021/12/22 01:35:41;;;;;;;26.55;14.23;;;0.70;92.00;;;;;;5054797;28;20115;-68
2021/12/22 01:38:07;;;;;;;31.75;14.90;;;0.70;92.00;;;;;;5053237;28;20036;-68
2021/12/22 01:40:38;;;;;;;24.23;11.60;;;0.70;92.00;;;;;;5054823;28;20041;-68
2021/12/22 01:43:05;;;;;;;27.08;12.63;;;0.70;92.00;;;;;;5052314;28;20040;-68
2021/12/22 01:45:54;;;;;;;26.75;14.98;;;0.70;92.00;;;;;;5060017;28;20028;-68
2021/12/22 01:51:38;;;;;;;30.20;14.23;;;0.70;92.00;;;;;;5058112;28;20522;-68
2021/12/22 01:54:09;;;;;;;37.28;16.58;;;0.60;92.00;;;;;;5054100;28;20510;-68
2021/12/22 01:56:36;;;;;;;28.73;14.40;;;0.60;92.00;;;;;;5054425;28;20028;-68
2021/12/22 01:59:06;;;;;;;28.92;15.10;;;0.60;92.00;;;;;;5054714;28;20120;-68
2021/12/22 02:01:33;;;;;;;29.38;14.88;;;0.60;92.00;;;;;;5052612;28;20523;-68
2021/12/22 02:03:59;;;;;;;28.45;12.77;;;0.60;91.90;;;;;;5055003;28;20060;-68
2021/12/22 02:06:26;;;;;;;25.20;14.18;;;0.60;91.90;;;;;;5053529;28;20036;-68
2021/12/22 02:08:52;;;;;;;28.15;15.45;;;0.60;91.90;;;;;;5039436;28;20028;-68
2021/12/22 02:11:20;;;;;;;26.48;13.32;;;0.60;92.00;;;;;;5041857;28;20377;-68
2021/12/22 02:13:52;;;;;;;29.33;14.60;;;0.60;91.90;;;;;;5040665;28;20576;-68
2021/12/22 02:16:25;;;;;;;27.48;13.50;;;0.60;91.90;;;;;;5048296;28;20021;-68
2021/12/22 02:18:53;;;;;;;31.88;15.43;;;0.50;92.00;;;;;;5052881;28;20037;-68
2021/12/22 02:21:21;;;;;;;27.67;13.30;;;0.50;92.00;;;;;;5056542;28;20037;-68
2021/12/22 02:23:47;;;;;;;25.63;13.30;;;0.50;92.40;;;;;;5054765;28;20025;-68
2021/12/22 02:26:21;;;;;;;30.60;14.70;;;0.40;92.10;;;;;;5052495;28;20040;-68
2021/12/22 02:28:55;;;;;;;20.05;10.63;;;0.40;92.10;;;;;;5056070;28;20024;-68
2021/12/22 02:31:21;;;;;;;30.45;14.90;;;0.40;92.10;;;;;;5055046;28;20030;-68
2021/12/22 02:33:50;;;;;;;23.38;12.32;;;0.40;92.10;;;;;;5054102;28;20519;-68
2021/12/22 02:36:23;;;;;;;27.75;13.98;;;0.40;92.00;;;;;;5056511;28;20025;-68
2021/12/22 02:38:54;;;;;;;25.10;13.40;;;0.40;92.00;;;;;;5052343;28;20036;-68
2021/12/22 02:41:23;;;;;;;26.75;14.00;;;0.40;92.00;;;;;;5050699;28;20017;-68
2021/12/22 02:43:52;;;;;;;27.00;13.77;;;0.40;92.00;;;;;;5050287;28;20416;-68
2021/12/22 02:46:28;;;;;;;30.25;14.23;;;0.30;92.00;;;;;;5050083;28;20024;-68
2021/12/22 02:48:54;;;;;;;28.20;13.95;;;0.30;92.10;;;;;;5052100;28;20029;-68
2021/12/22 02:51:20;;;;;;;27.58;15.05;;;0.30;92.20;;;;;;5055559;28;20045;-68
2021/12/22 02:54:01;;;;;;;24.05;12.75;;;0.20;92.20;;;;;;5053170;28;20036;-68
2021/12/22 02:56:37;;;;;;;25.10;13.10;;;0.20;92.30;;;;;;5054051;28;20025;-68
2021/12/22 03:04:11;;;;;;;28.63;16.13;;;0.20;92.50;;;;;;5051989;28;20043;-68
2021/12/22 03:06:45;;;;;;;25.77;13.10;;;0.10;92.60;;;;;;5055546;28;20034;-68
2021/12/22 03:09:20;;;;;;;28.80;14.70;;;0.20;92.60;;;;;;5054370;28;20036;-68
2021/12/22 03:11:47;;;;;;;32.50;14.77;;;0.10;92.60;;;;;;5054142;28;20058;-68
2021/12/22 03:14:14;;;;;;;27.30;13.45;;;0.10;92.60;;;;;;5054661;28;20646;-68
2021/12/22 03:16:43;;;;;;;34.88;16.33;;;0.10;92.60;;;;;;5054228;28;20104;-68
2021/12/22 03:19:10;;;;;;;27.35;13.80;;;0.10;92.60;;;;;;5053249;28;20029;-68
2021/12/22 03:21:38;;;;;;;26.77;13.27;;;0.10;92.60;;;;;;5059773;28;20515;-68
2021/12/22 03:24:04;;;;;;;31.75;14.95;;;0.10;92.60;;;;;;5058757;28;20400;-68
2021/12/22 03:26:30;;;;;;;28.08;13.20;;;0.10;92.60;;;;;;5057779;28;20029;-68
2021/12/22 03:28:56;;;;;;;28.77;13.80;;;0.10;92.60;;;;;;5061079;28;20036;-68
2021/12/22 03:31:22;;;;;;;26.25;14.77;;;0.10;92.50;;;;;;5060079;28;20024;-68
2021/12/22 03:33:48;;;;;;;25.00;12.02;;;0.20;92.50;;;;;;5059526;28;20415;-68
2021/12/22 03:36:14;;;;;;;24.48;11.30;;;0.20;92.40;;;;;;5058208;28;20388;-68
2021/12/22 03:38:40;;;;;;;29.25;15.85;;;0.10;92.40;;;;;;5056421;28;20037;-68
2021/12/22 03:41:08;;;;;;;29.45;12.95;;;0.10;92.30;;;;;;5057793;28;20032;-68
2021/12/22 03:43:34;;;;;;;24.08;12.52;;;0.10;92.30;;;;;;5055339;28;20492;-68
2021/12/22 03:46:00;;;;;;;29.33;14.15;;;0.20;92.30;;;;;;5054830;28;20039;-68
2021/12/22 03:48:26;;;;;;;30.80;14.52;;;0.20;92.40;;;;;;5055265;28;20032;-68
2021/12/22 03:50:52;;;;;;;24.50;11.63;;;0.20;92.30;;;;;;5054941;28;20040;-68
2021/12/22 03:53:18;;;;;;;26.23;13.05;;;0.20;92.30;;;;;;5056393;28;20037;-68
2021/12/22 03:55:44;;;;;;;25.85;13.45;;;0.20;92.30;;;;;;5054656;28;20111;-68
2021/12/22 03:58:10;;;;;;;30.50;13.98;;;0.20;92.20;;;;;;5053538;28;20025;-68
2021/12/22 04:00:39;;;;;;;26.70;14.38;;;0.20;92.20;;;;;;5045403;28;20032;-68
2021/12/22 04:03:05;;;;;;;24.75;11.60;;;0.20;92.20;;;;;;5037667;28;20418;-68
2021/12/22 04:05:31;;;;;;;25.95;14.45;;;0.20;92.10;;;;;;5042571;28;20037;-68
2021/12/22 04:07:57;;;;;;;25.70;13.13;;;0.20;92.10;;;;;;5060488;28;20119;-68
2021/12/22 04:10:25;;;;;;;26.50;15.30;;;0.10;92.20;;;;;;5055337;28;20108;-68
2021/12/22 04:12:55;;;;;;;25.25;13.73;;;0.10;92.30;;;;;;5057273;28;20388;-68
2021/12/22 04:15:23;;;;;;;24.55;13.13;;;0.10;92.40;;;;;;5063370;28;20024;-68
2021/12/22 04:17:49;;;;;;;25.15;12.18;;;0.10;92.50;;;;;;5054180;28;20029;-68
2021/12/22 04:20:16;;;;;;;27.23;14.80;;;0.10;92.50;;;;;;5055256;28;20056;-68
2021/12/22 04:22:42;;;;;;;30.35;16.23;;;0.10;92.60;;;;;;5060474;28;20051;-68
2021/12/22 04:25:09;;;;;;;30.23;12.55;;;0.10;92.70;;;;;;5053056;28;20028;-68
2021/12/22 04:27:36;;;;;;;31.13;14.48;;;0.10;92.70;;;;;;5061745;28;20031;-68
2021/12/22 04:30:06;;;;;;;25.67;12.65;;;0.20;92.80;;;;;;5058337;28;20039;-68
2021/12/22 04:32:32;;;;;;;25.20;13.85;;;0.20;92.80;;;;;;5057989;28;20128;-68
2021/12/22 04:34:58;;;;;;;29.00;15.10;;;0.20;92.80;;;;;;5053574;28;20105;-68
2021/12/22 04:37:23;;;;;;;26.00;12.77;;;0.30;92.80;;;;;;5059991;28;20045;-68
2021/12/22 04:39:49;;;;;;;30.50;12.43;;;0.30;92.80;;;;;;5058597;28;20106;-68
2021/12/22 04:42:16;;;;;;;27.70;15.45;;;0.30;92.80;;;;;;5058313;28;20035;-68
2021/12/22 04:44:42;;;;;;;28.92;14.07;;;0.30;92.70;;;;;;5052621;28;20114;-68
2021/12/22 04:47:07;;;;;;;31.88;16.00;;;0.30;92.70;;;;;;5056764;28;20092;-68
2021/12/22 04:49:33;;;;;;;29.23;15.68;;;0.40;92.80;;;;;;5055708;28;20025;-68
2021/12/22 04:52:01;;;;;;;28.27;14.32;;;0.40;92.80;;;;;;5055968;28;20388;-68
2021/12/22 04:56:53;;;;;;;31.83;15.18;;;0.40;92.80;;;;;;5054502;28;20021;-68
2021/12/22 04:59:19;;;;;;;29.73;14.07;;;0.40;92.80;;;;;;5055405;28;20087;-68
2021/12/22 05:01:45;;;;;;;25.08;11.77;;;0.40;92.80;;;;;;5056213;28;20024;-68
2021/12/22 05:04:11;;;;;;;34.30;18.30;;;0.40;92.80;;;;;;5054379;28;20083;-68
2021/12/22 05:06:37;;;;;;;30.20;15.30;;;0.40;92.80;;;;;;5058289;28;20027;-68
2021/12/22 05:09:04;;;;;;;22.40;11.65;;;0.40;92.80;;;;;;5057401;28;20036;-68
2021/12/22 05:11:31;;;;;;;23.55;12.57;;;0.40;92.80;;;;;;5054026;28;20092;-68
2021/12/22 05:13:57;;;;;;;26.35;12.88;;;0.30;92.80;;;;;;5055180;28;20036;-68
2021/12/22 05:16:23;;;;;;;32.83;14.77;;;0.40;92.70;;;;;;5054357;28;20029;-68
2021/12/22 05:18:52;;;;;;;34.53;15.40;;;0.30;92.70;;;;;;5056989;28;20111;-68
2021/12/22 05:21:21;;;;;;;26.08;13.55;;;0.30;92.60;;;;;;5055472;28;20036;-68
2021/12/22 05:23:48;;;;;;;29.88;14.98;;;0.30;92.70;;;;;;5042753;28;20029;-68
2021/12/22 05:26:14;;;;;;;23.40;11.82;;;0.30;92.70;;;;;;5057166;28;20025;-68
2021/12/22 05:28:40;;;;;;;29.08;16.20;;;0.30;92.60;;;;;;5051660;28;20522;-68
2021/12/22 05:31:06;;;;;;;31.17;16.13;;;0.30;92.60;;;;;;5053966;28;20107;-68
2021/12/22 05:33:31;;;;;;;34.15;19.45;;;0.30;92.70;;;;;;5056504;28;20811;-68
2021/12/22 05:35:57;;;;;;;26.80;13.27;;;0.30;92.60;;;;;;5045207;28;20036;-67
2021/12/22 05:38:23;;;;;;;24.42;12.65;;;0.30;92.60;;;;;;5043689;28;20022;-68
2021/12/22 05:40:49;;;;;;;29.13;15.35;;;0.30;92.60;;;;;;5036525;28;20039;-67
2021/12/22 05:43:14;;;;;;;26.50;14.65;;;0.30;92.50;;;;;;5031889;28;20041;-67
2021/12/22 05:45:40;;;;;;;32.22;14.27;;;0.30;92.50;;;;;;5036367;28;20087;-68
2021/12/22 05:48:06;;;;;;;29.42;13.05;;;0.30;92.60;;;;;;5036491;28;20091;-69
2021/12/22 05:50:32;;;;;;;33.35;14.77;;;0.40;92.60;;;;;;5046799;28;20041;-68
2021/12/22 05:52:58;;;;;;;22.55;11.40;;;0.40;92.60;;;;;;5045708;28;20049;-69
2021/12/22 05:55:23;;;;;;;38.67;14.95;;;0.40;92.60;;;;;;5035116;28;20024;-68
2021/12/22 05:57:49;;;;;;;21.88;11.38;;;0.40;92.60;;;;;;5034359;28;20040;-68
2021/12/22 06:00:15;;;;;;;27.35;13.73;;;0.40;92.50;;;;;;5048580;28;20036;-68
2021/12/22 06:02:41;;;;;;;30.95;12.70;;;0.40;92.40;;;;;;5047361;28;20386;-68
2021/12/22 06:05:08;;;;;;;36.13;13.63;;;0.40;92.40;;;;;;5046759;28;20028;-68
2021/12/22 06:07:34;;;;;;;29.67;14.27;;;0.40;92.50;;;;;;5046801;28;20025;-68
2021/12/22 06:10:00;;;;;;;31.17;14.55;;;0.40;92.50;;;;;;5031767;28;20026;-68
2021/12/22 06:12:26;;;;;;;34.70;15.70;;;0.40;92.70;;;;;;5048498;28;20028;-68
2021/12/22 06:14:51;;;;;;;34.05;15.07;;;0.40;92.70;;;;;;5054281;28;20029;-68
2021/12/22 06:17:17;;;;;;;29.05;13.32;;;0.40;92.70;;;;;;5052896;28;20025;-68
2021/12/22 06:19:43;;;;;;;25.75;12.35;;;0.40;92.50;;;;;;5052080;28;20174;-68
2021/12/22 06:22:09;;;;;;;35.05;15.77;;;0.40;92.50;;;;;;5031947;28;20033;-68
2021/12/22 06:24:35;;;;;;;26.23;12.80;;;0.40;92.60;;;;;;5047714;28;20500;-68
2021/12/22 06:27:00;;;;;;;30.60;18.23;;;0.40;92.70;;;;;;5048046;28;20082;-68
2021/12/22 06:29:26;;;;;;;25.88;14.23;;;0.40;92.60;;;;;;5044968;28;20123;-68
2021/12/22 06:31:52;;;;;;;27.98;13.60;;;0.40;92.70;;;;;;5047476;28;20047;-68
2021/12/22 06:34:19;;;;;;;26.27;12.95;;;0.40;92.50;;;;;;5054572;28;20021;-68
2021/12/22 06:36:45;;;;;;;26.10;14.07;;;0.40;92.50;;;;;;5053392;28;20108;-68
2021/12/22 06:39:11;;;;;;;32.95;17.08;;;0.40;92.50;;;;;;5054075;28;20021;-69
2021/12/22 06:41:37;;;;;;;28.13;12.40;;;0.40;92.40;;;;;;5056149;28;20027;-68
2021/12/22 06:44:05;;;;;;;33.10;16.30;;;0.40;92.40;;;;;;5048802;28;20415;-68
2021/12/22 06:46:31;;;;;;;34.50;15.60;;;0.30;92.10;;;;;;5039307;28;20407;-69
2021/12/22 06:48:57;;;;;;;31.17;14.32;;;0.30;92.10;;;;;;5034606;28;20030;-67
2021/12/22 06:51:23;;;;;;;31.33;15.50;;;0.30;92.10;;;;;;5045792;28;20599;-68
2021/12/22 06:53:50;;;;;;;31.25;13.57;;;0.30;92.20;;;;;;5044125;28;20044;-68
2021/12/22 06:56:16;;;;;;;37.75;15.88;;;0.20;92.20;;;;;;5048135;28;20025;-67
2021/12/22 06:58:42;;;;;;;29.40;15.00;;;0.20;92.30;;;;;;5046607;28;20032;-67
2021/12/22 07:01:08;;;;;;;38.22;15.02;;;0.20;92.30;;;;;;5047150;28;20524;-68
2021/12/22 07:03:34;;;;;;;32.70;14.88;;;0.20;92.40;;;;;;5034916;28;20040;-67
2021/12/22 07:05:59;;;;;;;32.17;15.50;;;0.20;92.40;;;;;;5036815;28;20049;-68
2021/12/22 07:08:25;;;;;;;31.48;15.82;;;0.30;92.50;;;;;;5041528;28;20409;-68
2021/12/22 07:10:52;;;;;;;33.92;15.90;;;0.30;92.50;;;;;;5036056;28;20086;-67
2021/12/22 07:13:18;;;;;;;32.08;12.82;;;0.30;92.50;;;;;;5030463;28;20025;-67
2021/12/22 07:15:44;;;;;;;30.88;14.13;;;0.30;92.50;;;;;;5054307;28;20397;-68
2021/12/22 07:18:11;;;;;;;31.70;16.02;;;0.30;92.40;;;;;;5046496;28;20064;-67
2021/12/22 07:20:38;;;;;;;26.52;12.73;;;0.30;92.40;;;;;;5041921;28;20063;-68
2021/12/22 07:23:04;;;;;;;28.63;12.95;;;0.30;92.40;;;;;;5044446;28;20047;-68
2021/12/22 07:25:30;;;;;;;37.50;16.58;;;0.30;92.40;;;;;;5036706;28;20056;-68
2021/12/22 07:27:56;;;;;;;30.25;16.60;;;0.30;92.50;;;;;;5042905;28;20542;-68
2021/12/22 07:30:22;;;;;;;34.75;18.08;;;0.30;92.50;;;;;;5047632;28;20029;-68
2021/12/22 07:32:48;;;;;;;31.23;14.40;;;0.30;92.20;;;;;;5040165;28;20064;-68
2021/12/22 07:35:29;;;;;;;28.48;14.05;;;0.20;92.20;;;;;;5057423;28;20057;-68
2021/12/22 07:38:06;;;;;;;31.15;13.27;;;0.20;92.80;;;;;;5036269;28;20033;-68
2021/12/22 07:40:32;;;;;;;26.13;13.00;;;0.20;92.50;;;;;;5040121;28;20037;-68
2021/12/22 07:42:57;;;;;;;29.73;14.65;;;0.20;92.60;;;;;;5049216;28;20040;-67
2021/12/22 07:45:23;;;;;;;28.17;13.82;;;0.20;92.70;;;;;;5047586;28;20033;-67
2021/12/22 07:47:49;;;;;;;24.13;13.00;;;0.30;92.60;;;;;;5040441;28;20037;-67
2021/12/22 07:50:15;;;;;;;30.35;13.98;;;0.20;92.60;;;;;;5050128;28;20026;-67
2021/12/22 07:52:41;;;;;;;28.52;15.57;;;0.20;92.50;;;;;;5033660;28;20500;-68
2021/12/22 07:55:07;;;;;;;30.35;16.23;;;0.20;92.50;;;;;;5058561;28;20081;-67
2021/12/22 07:57:33;;;;;;;28.40;14.95;;;0.20;92.50;;;;;;5052195;28;20496;-67
2021/12/22 07:59:59;;;;;;;29.88;14.35;;;0.20;92.60;;;;;;5048340;28;20031;-67
2021/12/22 08:02:24;;;;;;;32.55;13.95;;;0.20;92.60;;;;;;5049066;28;20094;-67
2021/12/22 08:04:50;;;;;;;32.42;16.90;;;0.20;92.60;;;;;;5046284;28;20026;-67
2021/12/22 08:07:16;;;;;;;25.25;13.88;;;0.20;92.50;;;;;;5049123;28;20401;-69
2021/12/22 08:09:42;;;;;;;26.05;14.07;;;0.20;92.30;;;;;;5066052;28;20514;-67
2021/12/22 08:12:08;;;;;;;32.30;14.70;;;0.20;92.40;;;;;;5039159;28;20102;-68
2021/12/22 08:14:35;;;;;;;29.48;14.98;;;0.20;92.60;;;;;;5045976;28;20056;-68
2021/12/22 08:17:01;;;;;;;35.60;15.02;;;0.20;92.70;;;;;;5047723;28;20037;-67
2021/12/22 08:19:27;;;;;;;31.60;16.67;;;0.20;92.80;;;;;;5049245;28;20032;-67
2021/12/22 08:21:54;;;;;;;32.10;16.80;;;0.30;92.70;;;;;;5052506;28;20037;-67
2021/12/22 08:24:20;;;;;;;30.50;15.77;;;0.20;92.40;;;;;;5047649;28;20567;-67
2021/12/22 08:26:45;;;;;;;30.55;15.57;;;0.20;92.40;;;;;;5050051;28;20104;-67
2021/12/22 08:29:11;;;;;;;26.90;14.35;;;0.20;92.40;;;;;;5048202;28;20388;-68
2021/12/22 08:31:37;;;;;;;31.90;16.23;;;0.20;92.30;;;;;;5047357;28;20025;-67
2021/12/22 08:34:04;;;;;;;37.15;17.83;;;0.20;92.40;;;;;;5046365;28;20111;-67
2021/12/22 08:39:14;;;;;;;31.23;15.35;;;0.30;92.60;;;;;;5047001;28;20036;-67
2021/12/22 08:41:41;;;;;;;32.45;17.73;;;0.40;92.70;;;;;;5048622;28;20029;-68
2021/12/22 08:44:09;;;;;;;34.13;16.38;;;0.40;92.50;;;;;;5046623;28;20064;-68
2021/12/22 08:46:39;;;;;;;32.08;16.10;;;0.40;92.50;;;;;;5040443;28;20025;-68
2021/12/22 08:49:06;;;;;;;28.45;13.82;;;0.50;92.40;;;;;;5034329;28;20026;-68
2021/12/22 08:51:33;;;;;;;32.28;17.25;;;0.50;92.30;;;;;;5045863;28;20400;-68
2021/12/22 08:54:00;;;;;;;30.63;16.60;;;0.50;92.10;;;;;;5039168;28;20044;-69
2021/12/22 08:56:28;;;;;;;33.30;17.17;;;0.50;92.00;;;;;;5037007;28;20022;-68
2021/12/22 08:58:54;;;;;;;26.65;12.52;;;0.50;92.10;;;;;;5037168;28;20032;-68
2021/12/22 09:01:23;;;;;;;35.22;17.83;;;0.50;92.20;;;;;;5049180;28;20607;-68
2021/12/22 09:03:49;;;;;;;33.65;15.23;;;0.50;92.30;;;;;;5049299;28;20037;-69
2021/12/22 09:06:14;;;;;;;34.78;14.90;;;0.60;92.20;;;;;;5047205;28;20036;-69
2021/12/22 09:08:41;;;;;;;31.00;16.33;;;0.70;91.90;;;;;;5044902;28;20029;-69
2021/12/22 09:11:08;;;;;;;28.92;14.40;;;0.70;91.40;;;;;;5050138;28;20025;-69
2021/12/22 09:13:37;;;;;;;29.02;14.57;;;0.70;91.50;;;;;;5050681;28;20029;-69
2021/12/22 09:19:25;;;;;;;33.22;19.27;;;0.70;91.50;;;;;;5050357;28;20071;-67
2021/12/22 09:21:51;;;;;;;26.80;13.10;;;0.60;91.60;;;;;;5051501;28;20435;-68
2021/12/22 09:24:17;;;;;;;33.40;16.13;;;0.60;92.00;;;;;;5057211;28;20496;-68
2021/12/22 09:26:43;;;;;;;30.05;16.35;;;0.60;91.80;;;;;;5053932;28;20519;-68
2021/12/22 09:29:09;;;;;;;30.88;15.38;;;0.60;91.90;;;;;;5050368;28;20029;-67
2021/12/22 09:31:35;;;;;;;29.73;14.75;;;0.60;91.70;;;;;;5048984;28;20025;-68
2021/12/22 09:34:01;;;;;;;30.85;14.35;;;0.50;91.80;;;;;;5047408;28;20048;-68
2021/12/22 09:36:26;;;;;;;40.90;18.67;;;0.60;92.00;;;;;;5046831;28;20033;-68
2021/12/22 09:38:52;;;;;;;29.05;16.45;;;0.60;91.90;;;;;;5039033;28;20037;-68
2021/12/22 09:41:18;;;;;;;35.55;15.88;;;0.70;91.80;;;;;;5039529;28;20041;-69
2021/12/22 09:43:44;;;;;;;32.53;17.27;;;0.80;91.70;;;;;;5047671;28;20503;-68
2021/12/22 09:46:13;;;;;;;34.22;17.55;;;1.00;91.40;;;;;;5046894;28;20655;-68
2021/12/22 09:53:39;;;;;;;32.45;18.38;;;1.10;90.40;;;;;;5052004;28;20519;-68
2021/12/22 09:56:06;;;;;;;35.42;19.55;;;1.10;90.50;;;;;;5046816;28;20113;-69
2021/12/22 09:58:32;;;;;;;30.42;15.52;;;1.20;90.20;;;;;;5050026;28;20087;-68
2021/12/22 10:00:58;;;;;;;32.53;17.13;;;1.20;89.90;;;;;;5051965;28;20029;-68
2021/12/22 10:03:25;;;;;;;29.42;13.05;;;1.20;90.10;;;;;;5040040;28;20039;-68
2021/12/22 10:05:52;;;;;;;30.63;16.92;;;1.30;90.10;;;;;;5056760;28;20058;-68
2021/12/22 10:08:23;;;;;;;35.70;19.20;;;1.30;89.60;;;;;;5047686;28;20036;-68
2021/12/22 10:10:59;;;;;;;38.72;23.30;;;1.30;89.40;;;;;;5039113;28;20029;-68
2021/12/22 10:13:28;;;;;;;29.25;14.18;;;1.40;89.30;;;;;;5046351;28;20064;-68
2021/12/22 10:15:55;;;;;;;33.70;18.20;;;1.40;89.00;;;;;;5033445;28;20025;-68
2021/12/22 10:18:25;;;;;;;30.58;15.60;;;1.40;88.90;;;;;;5048261;28;20021;-68
2021/12/22 10:20:54;;;;;;;33.35;16.88;;;1.30;89.60;;;;;;5044376;28;20116;-68
2021/12/22 10:23:19;;;;;;;30.77;17.52;;;1.30;89.70;;;;;;5041879;28;20083;-68
2021/12/22 10:26:06;;;;;;;35.63;19.60;;;1.40;89.80;;;;;;5037872;28;20395;-68
2021/12/22 10:28:54;;;;;;;30.20;15.30;;;1.40;89.70;;;;;;5039777;28;20128;-68
2021/12/22 10:31:41;;;;;;;29.27;14.07;;;1.40;89.60;;;;;;5054404;28;20441;-68
2021/12/22 10:34:10;;;;;;;27.17;14.32;;;1.60;89.50;;;;;;5049952;28;20037;-68
2021/12/22 10:36:51;;;;;;;26.75;13.02;;;1.70;88.20;;;;;;5040061;28;20040;-68
2021/12/22 10:39:29;;;;;;;26.52;13.63;;;1.80;87.70;;;;;;5045777;28;20116;-68
2021/12/22 10:42:06;;;;;;;32.03;14.93;;;1.70;88.60;;;;;;5038231;28;20526;-68
2021/12/22 10:44:38;;;;;;;32.33;17.10;;;1.70;87.90;;;;;;5045585;28;20120;-68
2021/12/22 10:49:14;;;;;;;28.27;14.38;;;1.70;87.90;;;;;;5048126;28;20025;-68
2021/12/22 10:50:24;;;;;;;28.98;15.32;;;1.80;87.90;;;;;;5037747;28;20120;-68
2021/12/22 10:52:50;;;;;;;28.73;14.30;;;1.90;87.50;;;;;;5056037;28;20049;-68
2021/12/22 10:55:17;;;;;;;26.27;13.45;;;1.90;87.60;;;;;;5058592;28;20095;-68
2021/12/22 10:57:46;;;;;;;26.42;14.85;;;1.90;87.50;;;;;;5049360;28;20056;-68
2021/12/22 11:00:15;;;;;;;27.25;15.15;;;2.00;87.40;;;;;;5043792;28;20048;-68
2021/12/22 11:02:45;;;;;;;26.83;13.52;;;2.00;86.00;;;;;;5040169;28;20480;-69
2021/12/22 11:05:27;;;;;;;33.92;14.43;;;1.90;86.10;;;;;;5038927;28;20041;-69
2021/12/22 11:07:53;;;;;;;27.98;13.65;;;1.90;86.80;;;;;;5035203;28;20062;-68
2021/12/22 11:10:30;;;;;;;25.40;13.13;;;2.00;86.40;;;;;;5032174;28;20025;-70
2021/12/22 11:13:06;;;;;;;28.45;15.40;;;2.00;85.90;;;;;;5046170;28;20021;-69
2021/12/22 11:15:43;;;;;;;25.30;14.38;;;2.10;86.10;;;;;;5042991;28;20040;-68
2021/12/22 11:18:28;;;;;;;27.30;15.40;;;2.20;85.30;;;;;;5046592;28;20028;-70
2021/12/22 11:21:16;;;;;;;25.13;14.43;;;2.30;85.10;;;;;;5034030;28;20033;-69
2021/12/22 11:23:41;;;;;;;29.20;14.43;;;2.40;84.40;;;;;;5042330;28;20033;-68
2021/12/22 11:26:08;;;;;;;32.38;17.27;;;2.60;83.40;;;;;;5045771;28;20106;-68
2021/12/22 11:28:35;;;;;;;27.48;15.48;;;2.50;83.00;;;;;;5034503;28;20369;-67
2021/12/22 11:31:02;;;;;;;25.90;14.23;;;2.30;83.70;;;;;;5037791;28;20037;-68
2021/12/22 11:33:30;;;;;;;27.83;14.48;;;2.20;84.40;;;;;;5055450;28;20025;-68
2021/12/22 11:35:57;;;;;;;32.47;18.80;;;2.10;85.40;;;;;;5049799;28;20136;-67
2021/12/22 11:38:28;;;;;;;25.30;13.13;;;2.00;85.80;;;;;;5041985;28;20032;-67
2021/12/22 11:40:56;;;;;;;25.00;13.20;;;2.00;86.20;;;;;;5045949;28;20045;-68
2021/12/22 11:43:24;;;;;;;29.33;15.25;;;1.90;86.70;;;;;;5034430;28;20045;-68
2021/12/22 11:45:51;;;;;;;25.15;12.70;;;1.90;86.70;;;;;;5038054;28;20065;-68
2021/12/22 11:48:17;;;;;;;25.67;12.32;;;2.10;86.60;;;;;;5038023;28;20025;-67
2021/12/22 11:50:47;;;;;;;26.30;15.25;;;2.30;85.60;;;;;;5037888;28;20661;-68
2021/12/22 11:53:13;;;;;;;29.63;17.55;;;2.60;83.90;;;;;;5052257;28;20052;-68
2021/12/22 11:55:42;;;;;;;27.10;14.30;;;2.60;83.40;;;;;;5046265;28;20033;-68
2021/12/22 11:58:29;;;;;;;31.88;17.65;;;2.60;83.10;;;;;;5035634;28;20992;-68
2021/12/22 12:01:02;;;;;;;24.35;13.48;;;2.50;83.50;;;;;;5060887;28;20507;-68
2021/12/22 12:03:37;;;;;;;25.58;14.00;;;2.40;83.60;;;;;;5043897;28;20045;-69
2021/12/22 12:06:12;;;;;;;27.92;13.80;;;2.40;84.90;;;;;;5044626;28;20397;-68
2021/12/22 12:08:38;;;;;;;25.20;13.13;;;2.40;83.90;;;;;;5044415;28;20024;-68
2021/12/22 12:11:18;;;;;;;32.63;16.48;;;2.40;84.30;;;;;;5046534;28;20026;-69
2021/12/22 12:13:57;;;;;;;34.08;18.40;;;2.50;84.20;;;;;;5047718;28;20162;-68
2021/12/22 12:22:19;;;;;;;27.15;14.95;;;3.40;80.60;;;;;;5049070;28;20124;-68
2021/12/22 12:24:56;;;;;;;33.03;15.75;;;3.60;79.20;;;;;;5037231;28;20035;-68
2021/12/22 12:27:31;;;;;;;36.85;18.67;;;3.60;79.70;;;;;;5063249;28;20428;-69
2021/12/22 12:30:07;;;;;;;28.80;17.20;;;3.40;80.70;;;;;;5042065;28;20110;-69
2021/12/22 12:32:39;;;;;;;31.02;17.17;;;3.20;80.20;;;;;;5035295;28;20219;-68
2021/12/22 12:35:20;;;;;;;28.30;14.07;;;3.00;80.80;;;;;;5044097;28;20021;-69
2021/12/22 12:38:05;;;;;;;26.50;13.55;;;2.90;81.30;;;;;;5043780;28;20044;-68
2021/12/22 12:41:10;;;;;;;26.95;14.00;;;2.80;82.10;;;;;;5032501;28;20098;-68
2021/12/22 12:46:24;;;;;;;31.70;16.40;;;2.70;83.10;;;;;;5040229;28;20499;-68
2021/12/22 12:49:03;;;;;;;32.97;17.83;;;2.70;83.60;;;;;;5043662;28;20511;-68
2021/12/22 12:51:33;;;;;;;28.45;14.30;;;2.70;83.90;;;;;;5038915;28;20069;-69
2021/12/22 12:54:16;;;;;;;28.35;14.20;;;2.70;84.30;;;;;;5041117;28;20036;-69
2021/12/22 12:56:47;;;;;;;36.75;18.73;;;2.70;84.10;;;;;;5037068;28;20029;-69
2021/12/22 12:59:19;;;;;;;26.70;13.60;;;2.80;84.40;;;;;;5033425;28;20094;-69
2021/12/22 13:01:50;;;;;;;30.67;16.63;;;2.90;83.80;;;;;;5035507;28;20056;-68
2021/12/22 13:04:32;;;;;;;32.08;15.55;;;3.00;83.10;;;;;;5033284;28;20074;-68
2021/12/22 13:07:05;;;;;;;26.52;13.80;;;3.00;83.00;;;;;;5044733;28;20033;-69
2021/12/22 13:10:02;;;;;;;33.17;16.77;;;3.10;82.60;;;;;;5042507;28;20029;-69
2021/12/22 13:18:14;;;;;;;31.10;16.77;;;3.10;82.60;;;;;;5042549;28;20060;-68
2021/12/22 13:20:41;;;;;;;28.10;14.50;;;3.00;82.70;;;;;;5049440;28;20483;-68
2021/12/22 13:23:11;;;;;;;31.50;16.30;;;2.90;83.20;;;;;;5048943;28;20041;-69